Time;durP1;ratioP1;P1;durP2;ratioP2;P2;SDS_P1;SDS_P2;PMS_P1;PMS_P2;Temp;Humidity;BMP_temperature;BMP_pressure;BME280_temperature;BME280_humidity;BME280_pressure;Samples;Min_cycle;Max_cycle;Signal;HPM_P1;HPM_P2
2023/04/06 00:00:33;;;;;;;3.93;3.63;;;;;;;;;;5103820;28;20614;-80
2023/04/06 00:02:59;;;;;;;4.00;3.70;;;;;;;;;;5095125;28;20204;-80
2023/04/06 00:05:27;;;;;;;4.83;3.80;;;;;;;;;;5104795;28;20206;-80
2023/04/06 00:07:55;;;;;;;4.00;3.70;;;;;;;;;;5112831;28;20196;-80
2023/04/06 00:10:23;;;;;;;3.80;3.53;;;;;;;;;;5112896;28;20235;-80
2023/04/06 00:12:50;;;;;;;3.90;3.60;;;;;;;;;;5112728;28;20592;-82
2023/04/06 00:15:17;;;;;;;3.60;3.30;;;;;;;;;;5112992;28;20678;-81
2023/04/06 00:17:44;;;;;;;4.43;4.03;;;;;;;;;;5107366;28;20260;-80
2023/04/06 00:20:11;;;;;;;3.97;3.60;;;;;;;;;;5104773;28;20211;-79
2023/04/06 00:22:38;;;;;;;4.80;4.40;;;;;;;;;;5112494;28;20207;-80
2023/04/06 00:25:06;;;;;;;4.60;4.20;;;;;;;;;;5099815;28;20208;-80
2023/04/06 00:27:34;;;;;;;3.73;3.43;;;;;;;;;;5112104;28;20226;-80
2023/04/06 00:30:01;;;;;;;5.83;3.87;;;;;;;;;;5099225;28;20234;-79
2023/04/06 00:32:28;;;;;;;3.40;3.10;;;;;;;;;;5112078;28;20207;-80
2023/04/06 00:34:54;;;;;;;3.70;3.40;;;;;;;;;;5112840;28;20235;-80
2023/04/06 00:37:21;;;;;;;4.43;4.03;;;;;;;;;;5105773;28;20200;-87
2023/04/06 00:39:48;;;;;;;3.90;3.50;;;;;;;;;;5105851;28;20192;-82
2023/04/06 00:42:15;;;;;;;4.13;3.73;;;;;;;;;;5112643;28;20203;-80
2023/04/06 00:44:44;;;;;;;3.93;3.63;;;;;;;;;;5112080;28;20215;-80
2023/04/06 00:47:10;;;;;;;3.87;3.47;;;;;;;;;;5112701;28;20214;-80
2023/04/06 00:49:37;;;;;;;3.60;3.30;;;;;;;;;;5111495;28;20231;-80
2023/04/06 00:52:04;;;;;;;4.23;3.90;;;;;;;;;;5091653;28;20239;-80
2023/04/06 00:54:31;;;;;;;6.83;4.23;;;;;;;;;;5107070;28;20206;-80
2023/04/06 00:56:58;;;;;;;4.33;3.93;;;;;;;;;;5103490;28;20204;-80
2023/04/06 00:59:25;;;;;;;3.50;3.20;;;;;;;;;;5091716;28;20683;-81
2023/04/06 01:01:53;;;;;;;4.13;3.77;;;;;;;;;;5100377;28;20698;-80
2023/04/06 01:04:22;;;;;;;5.37;4.67;;;;;;;;;;5098635;28;20211;-80
2023/04/06 01:06:48;;;;;;;4.60;4.20;;;;;;;;;;5102409;28;20693;-80
2023/04/06 01:09:15;;;;;;;4.70;4.30;;;;;;;;;;5105016;28;20243;-80
2023/04/06 01:11:44;;;;;;;4.73;4.27;;;;;;;;;;5101172;28;20227;-80
2023/04/06 01:14:11;;;;;;;5.50;4.70;;;;;;;;;;5098066;28;20203;-80
2023/04/06 01:16:38;;;;;;;4.17;3.80;;;;;;;;;;5101908;28;20207;-80
2023/04/06 01:19:10;;;;;;;4.43;4.03;;;;;;;;;;5091344;28;20196;-80
2023/04/06 01:21:37;;;;;;;5.13;4.73;;;;;;;;;;5091139;28;20200;-80
2023/04/06 01:24:06;;;;;;;4.70;4.27;;;;;;;;;;5105293;28;20223;-80
2023/04/06 01:26:34;;;;;;;4.93;4.43;;;;;;;;;;5103128;28;20199;-80
2023/04/06 01:29:01;;;;;;;4.57;3.87;;;;;;;;;;5097630;28;20203;-80
2023/04/06 01:31:28;;;;;;;5.07;4.67;;;;;;;;;;5099367;28;20714;-80
2023/04/06 01:33:55;;;;;;;3.67;3.37;;;;;;;;;;5096867;28;20204;-81
2023/04/06 01:36:22;;;;;;;4.47;3.57;;;;;;;;;;5099273;28;20204;-80
2023/04/06 01:38:49;;;;;;;5.43;4.00;;;;;;;;;;5104578;28;20205;-80
2023/04/06 01:41:17;;;;;;;4.10;3.70;;;;;;;;;;5104169;28;20208;-80
2023/04/06 01:43:45;;;;;;;4.93;4.53;;;;;;;;;;5111500;28;20669;-80
2023/04/06 01:46:11;;;;;;;4.33;3.77;;;;;;;;;;5114605;28;20294;-80
2023/04/06 01:48:38;;;;;;;5.00;4.40;;;;;;;;;;5102233;28;20196;-80
2023/04/06 01:51:05;;;;;;;5.07;4.57;;;;;;;;;;5115385;28;20227;-80
2023/04/06 01:53:32;;;;;;;4.17;3.77;;;;;;;;;;5102594;28;20271;-80
2023/04/06 01:56:01;;;;;;;5.17;4.50;;;;;;;;;;5115308;28;20204;-80
2023/04/06 01:58:29;;;;;;;4.83;4.43;;;;;;;;;;5095285;28;20204;-80
2023/04/06 02:00:56;;;;;;;5.10;4.60;;;;;;;;;;5094783;28;20200;-80
2023/04/06 02:03:23;;;;;;;5.37;4.87;;;;;;;;;;5095516;28;20295;-80
2023/04/06 02:05:50;;;;;;;5.03;4.17;;;;;;;;;;5094862;28;20204;-79
2023/04/06 02:08:16;;;;;;;5.03;4.63;;;;;;;;;;5103044;28;20769;-80
2023/04/06 02:10:44;;;;;;;4.70;4.30;;;;;;;;;;5115044;28;20231;-80
2023/04/06 02:13:10;;;;;;;5.30;4.83;;;;;;;;;;5106850;28;20223;-81
2023/04/06 02:15:39;;;;;;;4.37;3.97;;;;;;;;;;5096203;28;20211;-80
2023/04/06 02:18:05;;;;;;;4.40;4.00;;;;;;;;;;5106407;28;20687;-80
2023/04/06 02:20:32;;;;;;;4.57;4.17;;;;;;;;;;5094899;28;20208;-80
2023/04/06 02:23:00;;;;;;;5.13;4.57;;;;;;;;;;5103475;28;20203;-80
2023/04/06 02:25:27;;;;;;;5.60;5.10;;;;;;;;;;5115061;28;20323;-81
2023/04/06 02:27:54;;;;;;;4.93;4.53;;;;;;;;;;5105720;28;20257;-80
2023/04/06 02:30:21;;;;;;;4.77;4.30;;;;;;;;;;5094034;28;20227;-80
2023/04/06 02:32:49;;;;;;;5.27;4.77;;;;;;;;;;5104222;28;20208;-79
2023/04/06 02:35:16;;;;;;;7.80;4.87;;;;;;;;;;5100867;28;20568;-80
2023/04/06 02:37:42;;;;;;;5.00;4.50;;;;;;;;;;5104277;28;20793;-80
2023/04/06 02:40:11;;;;;;;4.63;4.23;;;;;;;;;;5094139;28;20681;-79
2023/04/06 02:42:37;;;;;;;4.60;4.23;;;;;;;;;;5104919;28;20208;-79
2023/04/06 02:45:05;;;;;;;4.70;4.30;;;;;;;;;;5100799;28;20208;-79
2023/04/06 02:47:32;;;;;;;4.80;4.40;;;;;;;;;;5104089;28;20196;-80
2023/04/06 02:50:00;;;;;;;6.90;4.50;;;;;;;;;;5098186;28;20206;-80
2023/04/06 02:52:27;;;;;;;5.10;4.60;;;;;;;;;;5114248;28;20215;-79
2023/04/06 02:54:54;;;;;;;5.67;5.13;;;;;;;;;;5100675;28;20214;-81
2023/04/06 02:57:20;;;;;;;5.63;5.13;;;;;;;;;;5101689;28;20598;-79
2023/04/06 02:59:47;;;;;;;5.47;4.97;;;;;;;;;;5107976;28;20555;-84
2023/04/06 03:02:14;;;;;;;6.53;5.93;;;;;;;;;;5093006;28;20227;-78
2023/04/06 03:04:41;;;;;;;5.23;4.83;;;;;;;;;;5094018;28;20200;-78
2023/04/06 03:07:09;;;;;;;5.40;4.87;;;;;;;;;;5106736;28;20200;-77
2023/04/06 03:09:37;;;;;;;5.07;4.57;;;;;;;;;;5106206;28;20241;-77
2023/04/06 03:12:04;;;;;;;5.07;4.67;;;;;;;;;;5113213;28;20226;-80
2023/04/06 03:14:31;;;;;;;4.30;4.00;;;;;;;;;;5100317;28;20210;-81
2023/04/06 03:16:58;;;;;;;4.53;4.13;;;;;;;;;;5101168;28;20210;-80
2023/04/06 03:19:25;;;;;;;5.10;4.60;;;;;;;;;;5093757;28;20690;-80
2023/04/06 03:21:52;;;;;;;5.23;4.73;;;;;;;;;;5093660;28;20211;-80
2023/04/06 03:24:20;;;;;;;5.60;4.70;;;;;;;;;;5093936;28;20204;-79
2023/04/06 03:26:46;;;;;;;5.80;5.20;;;;;;;;;;5106822;28;20200;-79
2023/04/06 03:29:13;;;;;;;5.40;4.90;;;;;;;;;;5113797;28;20207;-79
2023/04/06 03:31:40;;;;;;;7.23;5.33;;;;;;;;;;5112639;28;20287;-79
2023/04/06 03:34:07;;;;;;;9.70;7.80;;;;;;;;;;5093553;28;20589;-79
2023/04/06 03:36:35;;;;;;;11.53;9.20;;;;;;;;;;5106365;28;20208;-79
2023/04/06 03:39:02;;;;;;;16.60;12.07;;;;;;;;;;5101420;28;20200;-79
2023/04/06 03:41:30;;;;;;;19.47;12.23;;;;;;;;;;5112594;28;20413;-81
2023/04/06 03:43:57;;;;;;;15.77;11.30;;;;;;;;;;5104011;28;20200;-79
2023/04/06 03:46:24;;;;;;;12.33;9.33;;;;;;;;;;5108457;28;20646;-80
2023/04/06 03:48:51;;;;;;;10.37;8.30;;;;;;;;;;5113292;28;20274;-79
2023/04/06 03:51:17;;;;;;;10.50;8.57;;;;;;;;;;5110201;28;20223;-79
2023/04/06 03:53:44;;;;;;;15.93;10.77;;;;;;;;;;5101962;28;20214;-80
2023/04/06 03:56:11;;;;;;;9.90;7.03;;;;;;;;;;5096216;28;21674;-80
2023/04/06 03:58:40;;;;;;;8.53;7.20;;;;;;;;;;5102303;28;20207;-79
2023/04/06 04:01:06;;;;;;;7.83;7.13;;;;;;;;;;5112228;28;20207;-82
2023/04/06 04:03:33;;;;;;;8.27;7.00;;;;;;;;;;5112971;28;20203;-77
2023/04/06 04:06:00;;;;;;;8.53;7.03;;;;;;;;;;5112743;28;20210;-78
2023/04/06 04:08:27;;;;;;;7.43;6.60;;;;;;;;;;5111727;28;20214;-80
2023/04/06 04:10:55;;;;;;;9.07;7.77;;;;;;;;;;5095256;28;20204;-78
2023/04/06 04:13:21;;;;;;;13.10;9.40;;;;;;;;;;5092578;28;20200;-78
2023/04/06 04:15:50;;;;;;;16.67;11.63;;;;;;;;;;5108899;28;20207;-79
2023/04/06 04:18:16;;;;;;;11.93;8.43;;;;;;;;;;5112293;28;20210;-78
2023/04/06 04:20:43;;;;;;;9.60;8.20;;;;;;;;;;5094842;28;20418;-79
2023/04/06 04:23:10;;;;;;;14.27;10.30;;;;;;;;;;5102192;28;20199;-78
2023/04/06 04:25:37;;;;;;;13.30;8.30;;;;;;;;;;5112280;28;20195;-79
2023/04/06 04:28:04;;;;;;;8.27;7.47;;;;;;;;;;5100753;28;20218;-78
2023/04/06 04:30:31;;;;;;;7.47;6.63;;;;;;;;;;5091992;28;20269;-79
2023/04/06 04:32:59;;;;;;;7.87;5.73;;;;;;;;;;5102472;28;20262;-79
2023/04/06 04:35:27;;;;;;;7.23;6.50;;;;;;;;;;5112252;28;20268;-79
2023/04/06 04:37:54;;;;;;;7.27;6.57;;;;;;;;;;5100929;28;20204;-78
2023/04/06 04:40:21;;;;;;;9.30;5.80;;;;;;;;;;5092412;28;20204;-79
2023/04/06 04:42:48;;;;;;;5.77;5.37;;;;;;;;;;5092147;28;20213;-79
2023/04/06 04:45:15;;;;;;;6.60;6.03;;;;;;;;;;5092355;28;20219;-79
2023/04/06 04:47:41;;;;;;;7.67;6.97;;;;;;;;;;5103802;28;20195;-79
2023/04/06 04:50:10;;;;;;;20.70;14.50;;;;;;;;;;5092772;28;20599;-79
2023/04/06 04:52:38;;;;;;;13.73;10.87;;;;;;;;;;5104144;28;20224;-79
2023/04/06 04:55:06;;;;;;;7.37;6.33;;;;;;;;;;5092319;28;20211;-79
2023/04/06 04:57:33;;;;;;;9.37;7.87;;;;;;;;;;5105312;28;20204;-79
2023/04/06 05:00:01;;;;;;;10.27;7.63;;;;;;;;;;5105467;28;20290;-78
2023/04/06 05:02:28;;;;;;;7.20;6.50;;;;;;;;;;5091491;28;20236;-79
2023/04/06 05:04:55;;;;;;;6.80;6.10;;;;;;;;;;5104964;28;20208;-79
2023/04/06 05:07:23;;;;;;;8.77;7.37;;;;;;;;;;5091780;28;20663;-79
2023/04/06 05:09:50;;;;;;;7.40;6.43;;;;;;;;;;5099358;28;20224;-79
2023/04/06 05:12:17;;;;;;;9.00;6.50;;;;;;;;;;5111471;28;20274;-79
2023/04/06 05:14:43;;;;;;;11.30;8.57;;;;;;;;;;5104310;28;20211;-79
2023/04/06 05:17:10;;;;;;;7.23;6.20;;;;;;;;;;5105472;28;20207;-79
2023/04/06 05:19:37;;;;;;;7.50;6.80;;;;;;;;;;5110858;28;20575;-79
2023/04/06 05:22:04;;;;;;;7.53;6.67;;;;;;;;;;5111591;28;20203;-79
2023/04/06 05:24:32;;;;;;;7.77;6.67;;;;;;;;;;5103487;28;20204;-79
2023/04/06 05:26:59;;;;;;;7.40;6.13;;;;;;;;;;5106569;28;20210;-79
2023/04/06 05:29:26;;;;;;;7.93;6.80;;;;;;;;;;5111719;28;20227;-79
2023/04/06 05:31:53;;;;;;;12.83;11.40;;;;;;;;;;5097578;28;20227;-79
2023/04/06 05:34:20;;;;;;;13.60;11.40;;;;;;;;;;5111658;28;20704;-79
2023/04/06 05:36:47;;;;;;;10.63;9.53;;;;;;;;;;5097967;28;20192;-79
2023/04/06 05:39:14;;;;;;;9.83;8.83;;;;;;;;;;5102030;28;20192;-79
2023/04/06 05:41:42;;;;;;;8.93;7.63;;;;;;;;;;5094290;28;21617;-79
2023/04/06 05:44:09;;;;;;;11.53;9.50;;;;;;;;;;5111665;28;20196;-79
2023/04/06 05:46:36;;;;;;;12.53;9.70;;;;;;;;;;5111132;28;20695;-82
2023/04/06 05:49:03;;;;;;;9.60;8.13;;;;;;;;;;5111182;28;20230;-79
2023/04/06 05:51:29;;;;;;;8.93;8.03;;;;;;;;;;5111261;28;20592;-78
2023/04/06 05:53:57;;;;;;;8.57;7.50;;;;;;;;;;5111511;28;20210;-79
2023/04/06 05:56:25;;;;;;;8.40;7.53;;;;;;;;;;5111400;28;20203;-79
2023/04/06 05:58:53;;;;;;;8.73;7.27;;;;;;;;;;5111997;28;20212;-79
2023/04/06 06:01:19;;;;;;;10.87;7.40;;;;;;;;;;5111234;28;20203;-79
2023/04/06 06:03:46;;;;;;;8.67;7.27;;;;;;;;;;5100339;28;20812;-79
2023/04/06 06:06:13;;;;;;;7.97;6.80;;;;;;;;;;5095234;28;20214;-79
2023/04/06 06:08:40;;;;;;;8.07;6.70;;;;;;;;;;5111309;28;20301;-79
2023/04/06 06:11:06;;;;;;;11.40;8.03;;;;;;;;;;5110683;28;20207;-79
2023/04/06 06:13:33;;;;;;;11.47;9.00;;;;;;;;;;5099738;28;20709;-79
2023/04/06 06:16:04;;;;;;;8.73;7.83;;;;;;;;;;5104383;28;21036;-79
2023/04/06 06:18:31;;;;;;;7.47;6.60;;;;;;;;;;5090655;28;20687;-79
2023/04/06 06:21:00;;;;;;;7.00;6.30;;;;;;;;;;5096408;28;20215;-79
2023/04/06 06:23:27;;;;;;;6.83;6.13;;;;;;;;;;5098489;28;20674;-79
2023/04/06 06:25:53;;;;;;;6.50;5.83;;;;;;;;;;5104495;28;20209;-79
2023/04/06 06:28:20;;;;;;;5.67;5.17;;;;;;;;;;5102611;28;20200;-79
2023/04/06 06:30:47;;;;;;;6.27;5.67;;;;;;;;;;5104678;28;20208;-79
2023/04/06 06:33:15;;;;;;;6.27;5.67;;;;;;;;;;5094208;28;20231;-79
2023/04/06 06:35:42;;;;;;;6.77;6.13;;;;;;;;;;5101080;28;20199;-79
2023/04/06 06:38:09;;;;;;;5.50;4.93;;;;;;;;;;5115276;28;20225;-79
2023/04/06 06:40:36;;;;;;;5.70;5.20;;;;;;;;;;5094644;28;20215;-79
2023/04/06 06:43:03;;;;;;;5.67;5.17;;;;;;;;;;5108233;28;20207;-79
2023/04/06 06:45:30;;;;;;;5.77;5.27;;;;;;;;;;5114601;28;20204;-79
2023/04/06 06:47:57;;;;;;;5.67;5.07;;;;;;;;;;5100670;28;20204;-80
2023/04/06 06:50:26;;;;;;;5.70;5.20;;;;;;;;;;5107349;28;20208;-79
2023/04/06 06:52:52;;;;;;;6.47;5.87;;;;;;;;;;5108272;28;20706;-79
2023/04/06 06:55:20;;;;;;;8.00;5.63;;;;;;;;;;5106462;28;20231;-79
2023/04/06 06:57:47;;;;;;;5.83;5.33;;;;;;;;;;5095623;28;20208;-79
2023/04/06 07:00:14;;;;;;;7.17;6.37;;;;;;;;;;5114200;28;20260;-79
2023/04/06 07:02:41;;;;;;;6.90;6.20;;;;;;;;;;5114480;28;20216;-79
2023/04/06 07:05:09;;;;;;;7.47;6.67;;;;;;;;;;5105690;28;20204;-85
2023/04/06 07:07:37;;;;;;;8.07;6.83;;;;;;;;;;5096544;28;20204;-79
2023/04/06 07:10:04;;;;;;;7.73;6.50;;;;;;;;;;5114145;28;20227;-79
2023/04/06 07:12:31;;;;;;;7.37;6.67;;;;;;;;;;5112906;28;20223;-79
2023/04/06 07:14:57;;;;;;;7.10;6.33;;;;;;;;;;5114111;28;20226;-79
2023/04/06 07:17:24;;;;;;;9.77;7.30;;;;;;;;;;5114130;28;20207;-79
2023/04/06 07:19:51;;;;;;;8.67;7.13;;;;;;;;;;5104142;28;20203;-79
2023/04/06 07:22:18;;;;;;;8.23;7.23;;;;;;;;;;5107522;28;20203;-79
2023/04/06 07:24:46;;;;;;;9.97;7.77;;;;;;;;;;5103465;28;20199;-79
2023/04/06 07:27:13;;;;;;;7.57;6.87;;;;;;;;;;5110747;28;20227;-79
2023/04/06 07:29:42;;;;;;;7.90;6.90;;;;;;;;;;5093496;28;20223;-82
2023/04/06 07:32:09;;;;;;;7.67;6.93;;;;;;;;;;5107003;28;20208;-87
2023/04/06 07:34:36;;;;;;;8.17;7.20;;;;;;;;;;5103947;28;20306;-79
2023/04/06 07:37:03;;;;;;;7.63;6.87;;;;;;;;;;5113021;28;20214;-79
2023/04/06 07:39:30;;;;;;;9.30;7.40;;;;;;;;;;5113584;28;20210;-79
2023/04/06 07:41:58;;;;;;;15.70;10.37;;;;;;;;;;5099349;28;20668;-79
2023/04/06 07:44:25;;;;;;;15.07;10.23;;;;;;;;;;5113256;28;20192;-79
2023/04/06 07:46:52;;;;;;;15.90;10.70;;;;;;;;;;5100178;28;20218;-79
2023/04/06 07:49:20;;;;;;;10.90;8.03;;;;;;;;;;5113091;28;20208;-79
2023/04/06 07:51:47;;;;;;;10.50;7.63;;;;;;;;;;5113434;28;20196;-80
2023/04/06 07:54:14;;;;;;;15.00;10.50;;;;;;;;;;5113590;28;20227;-79
2023/04/06 07:56:41;;;;;;;10.40;8.10;;;;;;;;;;5113181;28;20199;-80
2023/04/06 07:59:11;;;;;;;6.70;5.93;;;;;;;;;;5113124;28;20701;-79
2023/04/06 08:01:37;;;;;;;7.73;6.63;;;;;;;;;;5113060;28;20207;-79
2023/04/06 08:04:04;;;;;;;8.67;6.93;;;;;;;;;;5099689;28;20694;-79
2023/04/06 08:06:31;;;;;;;10.03;7.67;;;;;;;;;;5112877;28;20250;-79
2023/04/06 08:08:58;;;;;;;6.60;5.93;;;;;;;;;;5113261;28;20231;-79
2023/04/06 08:11:26;;;;;;;7.23;5.13;;;;;;;;;;5105752;28;20663;-80
2023/04/06 08:13:53;;;;;;;9.50;8.10;;;;;;;;;;5092730;28;20571;-80
2023/04/06 08:16:21;;;;;;;6.17;5.43;;;;;;;;;;5106093;28;20287;-79
2023/04/06 08:18:48;;;;;;;7.60;5.80;;;;;;;;;;5092168;28;20196;-79
2023/04/06 08:21:15;;;;;;;5.63;4.93;;;;;;;;;;5100364;28;20211;-79
2023/04/06 08:23:42;;;;;;;5.53;4.87;;;;;;;;;;5098037;28;20200;-79
2023/04/06 08:26:09;;;;;;;6.70;6.10;;;;;;;;;;5100105;28;20199;-79
2023/04/06 08:28:36;;;;;;;5.77;5.17;;;;;;;;;;5111723;28;20282;-79
2023/04/06 08:31:05;;;;;;;6.53;5.93;;;;;;;;;;5100549;28;20226;-79
2023/04/06 08:33:36;;;;;;;4.70;4.30;;;;;;;;;;5098850;28;20719;-78
2023/04/06 08:36:08;;;;;;;11.13;9.97;;;;;;;;;;5102800;28;20204;-79
2023/04/06 08:38:35;;;;;;;7.20;6.20;;;;;;;;;;5109435;28;20643;-78
2023/04/06 08:41:08;;;;;;;12.90;10.13;;;;;;;;;;5112074;28;20598;-78
2023/04/06 08:43:37;;;;;;;9.60;8.70;;;;;;;;;;5112615;28;20642;-79
2023/04/06 08:46:04;;;;;;;8.87;7.90;;;;;;;;;;5112066;28;20203;-78
2023/04/06 08:48:32;;;;;;;7.07;6.37;;;;;;;;;;5097910;28;20214;-79
2023/04/06 08:51:00;;;;;;;22.40;15.80;;;;;;;;;;5099725;28;20207;-78
2023/04/06 08:53:26;;;;;;;13.20;11.17;;;;;;;;;;5097752;28;20599;-79
2023/04/06 08:55:53;;;;;;;18.00;14.17;;;;;;;;;;5099016;28;20211;-79
2023/04/06 08:58:21;;;;;;;11.03;9.50;;;;;;;;;;5111397;28;20215;-79
2023/04/06 09:00:48;;;;;;;26.00;17.73;;;;;;;;;;5112000;28;20602;-79
2023/04/06 09:03:15;;;;;;;12.97;11.67;;;;;;;;;;5111683;28;20215;-79
2023/04/06 09:05:43;;;;;;;51.00;28.77;;;;;;;;;;5111605;28;20220;-79
2023/04/06 09:08:10;;;;;;;9.80;8.07;;;;;;;;;;5112020;28;20203;-83
2023/04/06 09:10:37;;;;;;;5.73;5.23;;;;;;;;;;5110875;28;20218;-79
2023/04/06 09:13:05;;;;;;;9.50;7.70;;;;;;;;;;5104433;28;20702;-80
2023/04/06 09:15:32;;;;;;;8.37;6.27;;;;;;;;;;5105239;28;20214;-79
2023/04/06 09:17:59;;;;;;;5.53;5.03;;;;;;;;;;5091469;28;20200;-78
2023/04/06 09:20:28;;;;;;;6.60;5.47;;;;;;;;;;5105085;28;20227;-79
2023/04/06 09:22:56;;;;;;;10.33;7.30;;;;;;;;;;5099858;28;20222;-78
2023/04/06 09:25:27;;;;;;;8.33;5.57;;;;;;;;;;5110918;28;20591;-78
2023/04/06 09:28:00;;;;;;;4.87;4.47;;;;;;;;;;5101921;28;20289;-78
2023/04/06 09:30:27;;;;;;;10.57;6.70;;;;;;;;;;5094709;28;20675;-79
2023/04/06 09:32:55;;;;;;;4.50;4.10;;;;;;;;;;5111499;28;20625;-79
2023/04/06 09:35:22;;;;;;;4.97;4.47;;;;;;;;;;5111512;28;20199;-79
2023/04/06 09:37:50;;;;;;;5.33;4.77;;;;;;;;;;5111437;28;20203;-78
2023/04/06 09:40:20;;;;;;;4.67;4.27;;;;;;;;;;5107485;28;20196;-79
2023/04/06 09:42:48;;;;;;;3.80;3.50;;;;;;;;;;5102565;28;20294;-78
2023/04/06 09:45:15;;;;;;;3.83;3.53;;;;;;;;;;5111619;28;20207;-79
2023/04/06 09:47:45;;;;;;;4.93;4.30;;;;;;;;;;5099819;28;20204;-81
2023/04/06 09:50:12;;;;;;;4.20;3.80;;;;;;;;;;5110138;28;20295;-84
2023/04/06 09:52:42;;;;;;;5.30;4.47;;;;;;;;;;5111571;28;20199;-79
2023/04/06 09:55:10;;;;;;;6.30;5.77;;;;;;;;;;5097682;28;20199;-79
2023/04/06 09:57:46;;;;;;;6.97;5.77;;;;;;;;;;5111092;28;20202;-80
2023/04/06 10:00:18;;;;;;;9.77;8.63;;;;;;;;;;5091114;28;20230;-79
2023/04/06 10:02:50;;;;;;;5.53;5.03;;;;;;;;;;5091059;28;20662;-79
2023/04/06 10:05:21;;;;;;;5.20;4.70;;;;;;;;;;5101446;28;20211;-79
2023/04/06 10:07:50;;;;;;;7.90;7.00;;;;;;;;;;5101348;28;20570;-79
2023/04/06 10:10:17;;;;;;;6.53;5.93;;;;;;;;;;5115409;28;20684;-79
2023/04/06 10:12:46;;;;;;;10.07;8.83;;;;;;;;;;5110437;28;20196;-79
2023/04/06 10:15:13;;;;;;;7.20;6.13;;;;;;;;;;5094599;28;20211;-80
2023/04/06 10:17:39;;;;;;;6.67;6.07;;;;;;;;;;5113191;28;20200;-79
2023/04/06 10:20:11;;;;;;;6.73;6.03;;;;;;;;;;5103396;28;20208;-79
2023/04/06 10:22:52;;;;;;;6.60;5.57;;;;;;;;;;5114217;28;20236;-79
2023/04/06 10:25:27;;;;;;;6.03;5.43;;;;;;;;;;5114709;28;20642;-79
2023/04/06 10:28:01;;;;;;;4.73;4.33;;;;;;;;;;5105194;28;20694;-79
2023/04/06 10:30:29;;;;;;;8.27;7.37;;;;;;;;;;5098863;28;20203;-79
2023/04/06 10:32:56;;;;;;;7.93;7.03;;;;;;;;;;5114769;28;20208;-79
2023/04/06 10:35:23;;;;;;;9.77;7.20;;;;;;;;;;5109916;28;20207;-80
2023/04/06 10:37:54;;;;;;;8.03;6.77;;;;;;;;;;5094620;28;20257;-79
2023/04/06 10:40:25;;;;;;;9.53;8.67;;;;;;;;;;5108585;28;20208;-79
2023/04/06 10:42:53;;;;;;;7.70;6.90;;;;;;;;;;5093932;28;20200;-79
2023/04/06 10:45:23;;;;;;;7.97;6.60;;;;;;;;;;5113986;28;20682;-79
2023/04/06 10:47:50;;;;;;;7.07;6.37;;;;;;;;;;5114478;28;20211;-79
2023/04/06 10:50:17;;;;;;;7.33;5.87;;;;;;;;;;5100858;28;20235;-79
2023/04/06 10:52:46;;;;;;;7.10;5.90;;;;;;;;;;5100289;28;20254;-79
2023/04/06 10:55:14;;;;;;;8.33;7.03;;;;;;;;;;5094338;28;20235;-79
2023/04/06 10:57:41;;;;;;;14.97;10.90;;;;;;;;;;5095347;28;20682;-78
2023/04/06 11:00:09;;;;;;;10.97;9.80;;;;;;;;;;5106003;28;20401;-79
2023/04/06 11:02:37;;;;;;;17.33;12.83;;;;;;;;;;5108864;28;20589;-78
2023/04/06 11:05:05;;;;;;;13.77;12.03;;;;;;;;;;5104903;28;20731;-79
2023/04/06 11:07:32;;;;;;;25.20;19.17;;;;;;;;;;5107289;28;20211;-78
2023/04/06 11:10:01;;;;;;;28.57;23.83;;;;;;;;;;5093806;28;20236;-78
2023/04/06 11:12:30;;;;;;;18.27;14.87;;;;;;;;;;5109854;28;20604;-78
2023/04/06 11:15:01;;;;;;;19.33;14.57;;;;;;;;;;5113695;28;20272;-78
2023/04/06 11:17:29;;;;;;;30.23;19.90;;;;;;;;;;5109673;28;20289;-78
2023/04/06 11:19:57;;;;;;;22.97;19.67;;;;;;;;;;5103904;28;20212;-79
2023/04/06 11:22:24;;;;;;;7.23;6.60;;;;;;;;;;5109901;28;20203;-78
2023/04/06 11:24:51;;;;;;;22.87;15.70;;;;;;;;;;5104794;28;20227;-79
2023/04/06 11:27:18;;;;;;;26.43;18.40;;;;;;;;;;5109207;28;20223;-78
2023/04/06 11:29:46;;;;;;;16.07;11.60;;;;;;;;;;5104326;28;20207;-79
2023/04/06 11:32:21;;;;;;;15.93;14.33;;;;;;;;;;5096061;28;20212;-79
2023/04/06 11:34:48;;;;;;;24.73;16.80;;;;;;;;;;5105922;28;20230;-78
2023/04/06 11:37:17;;;;;;;7.43;6.60;;;;;;;;;;5107416;28;20212;-79
2023/04/06 11:39:48;;;;;;;12.17;10.70;;;;;;;;;;5093141;28;20212;-80
2023/04/06 11:42:22;;;;;;;8.70;7.97;;;;;;;;;;5099797;28;20203;-79
2023/04/06 11:44:52;;;;;;;7.07;6.27;;;;;;;;;;5113731;28;20204;-78
2023/04/06 11:47:19;;;;;;;11.33;9.17;;;;;;;;;;5104090;28;20214;-78
2023/04/06 11:49:47;;;;;;;14.40;12.93;;;;;;;;;;5093148;28;20211;-78
2023/04/06 11:52:20;;;;;;;9.27;8.43;;;;;;;;;;5102320;28;20207;-86
2023/04/06 11:54:47;;;;;;;14.83;13.23;;;;;;;;;;5095752;28;20580;-78
2023/04/06 11:57:14;;;;;;;11.17;10.07;;;;;;;;;;5103712;28;20199;-82
2023/04/06 11:59:42;;;;;;;11.60;10.40;;;;;;;;;;5094682;28;20207;-78
2023/04/06 12:02:08;;;;;;;12.80;11.67;;;;;;;;;;5112680;28;20199;-78
2023/04/06 12:04:35;;;;;;;18.97;17.27;;;;;;;;;;5095563;28;20204;-78
2023/04/06 12:07:02;;;;;;;13.33;8.97;;;;;;;;;;5092678;28;20204;-79
2023/04/06 12:09:31;;;;;;;8.23;6.57;;;;;;;;;;5105213;28;20227;-78
2023/04/06 12:12:00;;;;;;;5.83;5.33;;;;;;;;;;5104175;28;20203;-78
2023/04/06 12:14:27;;;;;;;15.70;12.20;;;;;;;;;;5098709;28;20272;-78
2023/04/06 12:16:54;;;;;;;8.90;7.07;;;;;;;;;;5112847;28;20231;-79
2023/04/06 12:19:23;;;;;;;9.97;8.93;;;;;;;;;;5093734;28;20197;-79
2023/04/06 12:21:50;;;;;;;7.20;5.70;;;;;;;;;;5092673;28;20208;-78
2023/04/06 12:24:17;;;;;;;9.20;8.20;;;;;;;;;;5092505;28;20212;-78
2023/04/06 12:26:45;;;;;;;6.53;5.93;;;;;;;;;;5092650;28;20211;-78
2023/04/06 12:29:13;;;;;;;7.97;4.50;;;;;;;;;;5111971;28;20200;-79
2023/04/06 12:31:40;;;;;;;5.03;4.60;;;;;;;;;;5112349;28;20217;-78
2023/04/06 12:34:07;;;;;;;6.23;4.80;;;;;;;;;;5099167;28;20235;-78
2023/04/06 12:36:34;;;;;;;6.07;5.30;;;;;;;;;;5112059;28;20284;-79
2023/04/06 12:39:02;;;;;;;5.57;5.07;;;;;;;;;;5091753;28;20204;-78
2023/04/06 12:41:29;;;;;;;5.27;4.77;;;;;;;;;;5105465;28;20207;-79
2023/04/06 12:43:59;;;;;;;6.17;4.90;;;;;;;;;;5091831;28;20577;-78
2023/04/06 12:46:26;;;;;;;5.90;5.27;;;;;;;;;;5105326;28;20200;-79
2023/04/06 12:48:54;;;;;;;5.43;4.93;;;;;;;;;;5092112;28;20227;-80
2023/04/06 12:51:21;;;;;;;6.03;5.37;;;;;;;;;;5105502;28;20204;-79
2023/04/06 12:53:48;;;;;;;8.90;7.90;;;;;;;;;;5100666;28;20207;-79
2023/04/06 12:56:16;;;;;;;8.30;7.50;;;;;;;;;;5098257;28;20204;-79
2023/04/06 12:58:43;;;;;;;10.33;8.67;;;;;;;;;;5103150;28;20653;-78
2023/04/06 13:01:12;;;;;;;8.90;6.73;;;;;;;;;;5107966;28;20568;-79
2023/04/06 13:03:39;;;;;;;5.67;5.13;;;;;;;;;;5102571;28;20220;-79
2023/04/06 13:06:08;;;;;;;9.87;8.13;;;;;;;;;;5108317;28;20678;-79
2023/04/06 13:08:37;;;;;;;12.33;9.00;;;;;;;;;;5111658;28;20234;-79
2023/04/06 13:11:04;;;;;;;15.73;13.37;;;;;;;;;;5111590;28;20272;-79
2023/04/06 13:13:31;;;;;;;7.70;6.93;;;;;;;;;;5100929;28;20292;-79
2023/04/06 13:16:02;;;;;;;6.90;6.27;;;;;;;;;;5095105;28;20262;-79
2023/04/06 13:18:30;;;;;;;6.10;5.60;;;;;;;;;;5100456;28;20249;-79
2023/04/06 13:20:59;;;;;;;10.43;7.30;;;;;;;;;;5096395;28;20213;-79
2023/04/06 13:23:26;;;;;;;7.57;5.97;;;;;;;;;;5099440;28;20203;-79
2023/04/06 13:25:59;;;;;;;5.80;5.20;;;;;;;;;;5104814;28;20200;-79
2023/04/06 13:28:26;;;;;;;6.03;5.43;;;;;;;;;;5104781;28;20712;-79
2023/04/06 13:30:53;;;;;;;6.37;5.63;;;;;;;;;;5091336;28;20301;-79
2023/04/06 13:33:20;;;;;;;7.63;6.80;;;;;;;;;;5091089;28;20690;-79
2023/04/06 13:35:48;;;;;;;8.80;7.33;;;;;;;;;;5091105;28;20671;-79
2023/04/06 13:38:15;;;;;;;11.37;8.13;;;;;;;;;;5091725;28;20208;-79
2023/04/06 13:40:43;;;;;;;28.90;18.00;;;;;;;;;;5103138;28;20552;-79
2023/04/06 13:43:10;;;;;;;9.17;7.33;;;;;;;;;;5091995;28;20208;-79
2023/04/06 13:45:37;;;;;;;6.33;5.73;;;;;;;;;;5111265;28;20203;-79
2023/04/06 13:48:04;;;;;;;6.50;5.23;;;;;;;;;;5109758;28;20208;-79
2023/04/06 13:50:31;;;;;;;4.90;4.47;;;;;;;;;;5090883;28;20211;-79
2023/04/06 13:52:59;;;;;;;4.73;4.13;;;;;;;;;;5092859;28;20200;-79
2023/04/06 13:55:26;;;;;;;5.40;4.90;;;;;;;;;;5102093;28;20232;-79
2023/04/06 13:57:52;;;;;;;7.93;7.20;;;;;;;;;;5104743;28;20211;-79
2023/04/06 14:00:20;;;;;;;8.00;5.60;;;;;;;;;;5090811;28;20193;-81
2023/04/06 14:02:46;;;;;;;8.00;7.20;;;;;;;;;;5107110;28;20700;-79
2023/04/06 14:05:13;;;;;;;8.07;6.67;;;;;;;;;;5111315;28;20204;-79
2023/04/06 14:07:41;;;;;;;6.30;4.83;;;;;;;;;;5108226;28;20207;-79
2023/04/06 14:10:13;;;;;;;9.03;8.13;;;;;;;;;;5100953;28;20234;-79
2023/04/06 14:12:41;;;;;;;10.80;9.70;;;;;;;;;;5097254;28;20204;-79
2023/04/06 14:15:11;;;;;;;15.47;11.90;;;;;;;;;;5111101;28;20219;-79
2023/04/06 14:17:38;;;;;;;5.23;4.73;;;;;;;;;;5097683;28;20208;-79
2023/04/06 14:20:06;;;;;;;4.37;3.87;;;;;;;;;;5099318;28;20201;-79
2023/04/06 14:22:33;;;;;;;4.37;4.07;;;;;;;;;;5109789;28;20206;-79
2023/04/06 14:25:00;;;;;;;4.27;3.87;;;;;;;;;;5098737;28;20281;-79
2023/04/06 14:27:28;;;;;;;3.53;3.23;;;;;;;;;;5096090;28;20636;-79
2023/04/06 14:29:55;;;;;;;4.13;3.73;;;;;;;;;;5098271;28;20212;-79
2023/04/06 14:32:22;;;;;;;4.13;3.60;;;;;;;;;;5096338;28;20294;-79
2023/04/06 14:34:49;;;;;;;4.17;3.77;;;;;;;;;;5110787;28;20297;-79
2023/04/06 14:37:17;;;;;;;3.90;3.60;;;;;;;;;;5110900;28;20290;-79
2023/04/06 14:39:45;;;;;;;4.93;4.43;;;;;;;;;;5110650;28;20195;-79